createdAt,value
2019-03-16T00:00:35.656Z,55.55
2019-03-16T00:03:04.302Z,52.43
2019-03-16T00:05:32.928Z,53.92
2019-03-16T00:08:01.611Z,56.45
2019-03-16T00:10:30.263Z,54.33
2019-03-16T00:12:59.054Z,54.45
2019-03-16T00:15:27.625Z,61.75
2019-03-16T00:17:56.259Z,52.20
2019-03-16T00:20:24.932Z,56.83
2019-03-16T00:22:53.568Z,54.70
2019-03-16T00:25:22.242Z,50.60
2019-03-16T00:27:50.889Z,55.48
2019-03-16T00:30:19.506Z,56.30
2019-03-16T00:32:48.167Z,54.15
2019-03-16T00:35:16.807Z,57.10
2019-03-16T00:37:46.145Z,53.83
2019-03-16T00:40:14.780Z,50.45
2019-03-16T00:42:43.478Z,56.58
2019-03-16T00:45:12.811Z,56.85
2019-03-16T00:47:41.451Z,55.23
2019-03-16T00:50:13.828Z,56.42
2019-03-16T00:52:42.405Z,55.08
2019-03-16T00:55:11.185Z,57.10
2019-03-16T00:57:39.818Z,57.95
2019-03-16T01:00:16.575Z,60.88
2019-03-16T01:02:45.153Z,54.53
2019-03-16T01:05:14.798Z,57.85
2019-03-16T01:07:43.477Z,56.37
2019-03-16T01:10:12.058Z,55.70
2019-03-16T01:12:40.759Z,51.63
2019-03-16T01:15:13.262Z,53.68
2019-03-16T01:17:41.841Z,54.60
2019-03-16T01:20:11.928Z,62.30
2019-03-16T01:22:40.561Z,54.83
2019-03-16T01:25:11.062Z,54.95
2019-03-16T01:27:39.691Z,51.55
2019-03-16T01:30:17.331Z,52.67
2019-03-16T01:32:45.969Z,56.63
2019-03-16T01:35:14.611Z,49.63
2019-03-16T01:37:43.278Z,56.60
2019-03-16T01:40:11.922Z,58.38
2019-03-16T01:42:40.624Z,50.17
2019-03-16T01:45:10.679Z,53.23
2019-03-16T01:47:39.332Z,56.53
2019-03-16T01:50:09.902Z,51.60
2019-03-16T01:52:38.487Z,51.25
2019-03-16T01:55:09.169Z,53.58
2019-03-16T01:57:37.816Z,53.68
2019-03-16T02:00:09.812Z,56.60
2019-03-16T02:02:38.400Z,54.73
2019-03-16T02:05:07.540Z,54.70
2019-03-16T02:07:36.176Z,49.83
2019-03-16T02:10:05.828Z,57.17
2019-03-16T02:12:34.463Z,53.00
2019-03-16T02:15:03.154Z,50.65
2019-03-16T02:17:31.711Z,58.42
2019-03-16T02:20:00.534Z,48.40
2019-03-16T02:22:29.159Z,51.30
2019-03-16T02:24:57.819Z,54.73
2019-03-16T02:27:26.489Z,51.13
2019-03-16T02:29:55.115Z,53.10
2019-03-16T02:32:23.814Z,50.88
2019-03-16T02:34:52.464Z,53.85
2019-03-16T02:37:21.092Z,53.05
2019-03-16T02:39:49.697Z,58.80
2019-03-16T02:42:18.265Z,55.67
2019-03-16T02:44:46.972Z,57.95
2019-03-16T02:47:15.620Z,58.58
2019-03-16T02:49:44.195Z,55.65
2019-03-16T02:52:12.797Z,53.25
2019-03-16T02:54:41.344Z,55.38
2019-03-16T02:57:09.899Z,58.80
2019-03-16T02:59:38.552Z,55.45
2019-03-16T03:02:07.168Z,60.12
2019-03-16T03:04:35.843Z,54.67
2019-03-16T03:07:04.414Z,57.15
2019-03-16T03:09:33.113Z,56.63
2019-03-16T03:12:01.756Z,55.15
2019-03-16T03:14:30.502Z,56.85
2019-03-16T03:16:59.100Z,53.20
2019-03-16T03:19:27.740Z,60.55
2019-03-16T03:21:56.420Z,57.88
2019-03-16T03:24:24.996Z,59.13
2019-03-16T03:26:53.696Z,58.28
2019-03-16T03:29:22.271Z,50.50
2019-03-16T03:31:50.846Z,58.52
2019-03-16T03:34:19.547Z,54.98
2019-03-16T03:36:48.165Z,55.88
2019-03-16T03:39:16.863Z,59.10
2019-03-16T03:41:45.807Z,58.42
2019-03-16T03:44:14.383Z,57.88
2019-03-16T03:46:43.064Z,56.68
2019-03-16T03:49:11.697Z,57.25
2019-03-16T03:51:40.308Z,55.28
2019-03-16T03:54:08.795Z,55.20
2019-03-16T03:56:37.357Z,60.33
2019-03-16T03:59:06.048Z,57.00
2019-03-16T04:01:34.481Z,57.80
2019-03-16T04:04:15.353Z,52.23
2019-03-16T04:06:33.395Z,55.92
2019-03-16T04:09:02.020Z,54.30
2019-03-16T04:11:30.709Z,57.48
2019-03-16T04:13:59.283Z,53.95
2019-03-16T04:16:27.977Z,53.30
2019-03-16T04:18:56.635Z,57.83
2019-03-16T04:21:25.133Z,58.08
2019-03-16T04:23:53.756Z,59.20
2019-03-16T04:26:22.305Z,60.95
2019-03-16T04:28:50.927Z,58.20
2019-03-16T04:31:19.585Z,55.52
2019-03-16T04:33:48.223Z,55.05
2019-03-16T04:36:16.907Z,55.38
2019-03-16T04:38:45.536Z,51.42
2019-03-16T04:41:14.172Z,58.73
2019-03-16T04:43:42.929Z,59.30
2019-03-16T04:46:11.574Z,51.33
2019-03-16T04:48:40.169Z,53.65
2019-03-16T04:51:08.671Z,60.65
2019-03-16T04:53:37.289Z,59.15
2019-03-16T04:56:05.933Z,55.50
2019-03-16T04:58:34.494Z,55.25
2019-03-16T05:01:03.117Z,59.05
2019-03-16T05:03:31.752Z,53.42
2019-03-16T05:06:00.373Z,58.00
2019-03-16T05:08:28.934Z,52.27
2019-03-16T05:10:57.525Z,54.80
2019-03-16T05:13:26.503Z,56.90
2019-03-16T05:15:55.068Z,56.92
2019-03-16T05:18:23.671Z,56.28
2019-03-16T05:20:52.250Z,58.70
2019-03-16T05:23:20.899Z,62.33
2019-03-16T05:25:49.586Z,58.35
2019-03-16T05:28:18.153Z,69.03
2019-03-16T05:30:46.708Z,60.60
2019-03-16T05:33:15.382Z,60.75
2019-03-16T05:35:44.026Z,57.00
2019-03-16T05:38:12.673Z,62.43
2019-03-16T05:40:41.329Z,62.17
2019-03-16T05:43:09.964Z,61.25
2019-03-16T05:45:38.641Z,60.75
2019-03-16T05:48:07.232Z,61.53
2019-03-16T05:50:35.795Z,58.95
2019-03-16T05:53:04.480Z,59.30
2019-03-16T05:55:33.105Z,63.20
2019-03-16T05:58:01.811Z,54.42
2019-03-16T06:00:30.460Z,60.20
2019-03-16T06:02:59.109Z,62.03
2019-03-16T06:05:27.764Z,54.90
2019-03-16T06:07:56.355Z,60.60
2019-03-16T06:10:25.040Z,61.58
2019-03-16T06:12:53.619Z,62.55
2019-03-16T06:15:22.272Z,55.45
2019-03-16T06:17:50.895Z,59.73
2019-03-16T06:20:19.469Z,60.88
2019-03-16T06:22:48.152Z,64.40
2019-03-16T06:25:16.797Z,59.08
2019-03-16T06:27:45.452Z,61.92
2019-03-16T06:30:15.618Z,55.95
2019-03-16T06:32:44.254Z,57.48
2019-03-16T06:35:24.043Z,59.45
2019-03-16T06:37:43.168Z,58.92
2019-03-16T06:40:12.226Z,58.83
2019-03-16T06:42:40.919Z,59.63
2019-03-16T06:45:11.050Z,57.33
2019-03-16T06:47:39.731Z,60.60
2019-03-16T06:50:15.773Z,66.67
2019-03-16T06:52:44.394Z,64.70
2019-03-16T06:55:13.033Z,66.30
2019-03-16T06:57:41.629Z,61.33
2019-03-16T07:00:17.983Z,64.00
2019-03-16T07:02:46.638Z,67.05
2019-03-16T07:05:15.240Z,63.20
2019-03-16T07:07:43.888Z,62.83
2019-03-16T07:10:13.638Z,62.17
2019-03-16T07:12:42.358Z,61.70
2019-03-16T07:15:12.214Z,66.95
2019-03-16T07:17:40.816Z,62.20
2019-03-16T07:20:11.178Z,62.08
2019-03-16T07:22:39.765Z,63.85
2019-03-16T07:25:08.458Z,59.55
2019-03-16T07:27:37.104Z,58.63
2019-03-16T07:30:11.426Z,69.27
2019-03-16T07:32:40.069Z,64.32
2019-03-16T07:35:08.810Z,63.50
2019-03-16T07:37:37.354Z,65.72
2019-03-16T07:40:08.898Z,73.65
2019-03-16T07:42:37.568Z,66.10
2019-03-16T07:45:09.387Z,60.90
2019-03-16T07:47:38.090Z,72.12
2019-03-16T07:50:08.826Z,62.55
2019-03-16T07:52:37.509Z,70.17
2019-03-16T07:55:08.146Z,66.37
2019-03-16T07:57:40.525Z,62.13
2019-03-16T08:00:11.961Z,61.28
2019-03-16T08:02:40.596Z,65.80
2019-03-16T08:05:18.195Z,64.12
2019-03-16T08:07:39.621Z,62.43
2019-03-16T08:10:10.612Z,62.83
2019-03-16T08:12:39.286Z,62.00
2019-03-16T08:15:09.534Z,59.23
2019-03-16T08:17:38.203Z,58.45
2019-03-16T08:20:09.095Z,62.80
2019-03-16T08:22:37.798Z,63.42
2019-03-16T08:25:07.600Z,65.05
2019-03-16T08:27:36.236Z,65.25
2019-03-16T08:30:08.121Z,57.27
2019-03-16T08:32:36.758Z,65.12
2019-03-16T08:35:06.737Z,69.32
2019-03-16T08:37:35.420Z,67.17
2019-03-16T08:40:06.382Z,65.80
2019-03-16T08:42:35.271Z,67.58
2019-03-16T08:45:08.869Z,66.65
2019-03-16T08:47:37.552Z,67.27
2019-03-16T08:50:08.041Z,68.55
2019-03-16T08:52:36.666Z,70.42
2019-03-16T08:55:07.241Z,63.42
2019-03-16T08:57:35.827Z,68.42
2019-03-16T09:00:07.368Z,61.98
2019-03-16T09:02:36.028Z,68.92
2019-03-16T09:05:06.022Z,69.95
2019-03-16T09:07:34.515Z,71.07
2019-03-16T09:10:03.203Z,66.72
2019-03-16T09:12:31.844Z,69.70
2019-03-16T09:15:00.526Z,69.20
2019-03-16T09:17:29.211Z,68.20
2019-03-16T09:19:57.864Z,70.72
2019-03-16T09:22:29.513Z,71.12
2019-03-16T09:24:56.773Z,74.90
2019-03-16T09:27:31.073Z,71.67
2019-03-16T09:29:55.702Z,72.22
2019-03-16T09:32:24.345Z,69.92
2019-03-16T09:34:55.518Z,67.67
2019-03-16T09:37:24.144Z,69.30
2019-03-16T09:39:52.843Z,72.78
2019-03-16T09:42:21.501Z,69.20
2019-03-16T09:44:50.153Z,70.30
2019-03-16T09:47:18.816Z,70.83
2019-03-16T09:49:47.438Z,69.03
2019-03-16T09:52:16.070Z,69.70
2019-03-16T09:54:44.704Z,70.22
2019-03-16T09:57:13.352Z,68.42
2019-03-16T09:59:42.017Z,72.30
2019-03-16T10:02:10.669Z,71.75
2019-03-16T10:04:39.366Z,72.17
2019-03-16T10:07:08.010Z,74.27
2019-03-16T10:09:36.647Z,82.02
2019-03-16T10:12:05.333Z,69.80
2019-03-16T10:14:37.022Z,72.42
2019-03-16T10:17:04.198Z,71.10
2019-03-16T10:19:32.834Z,73.25
2019-03-16T10:22:01.471Z,77.32
2019-03-16T10:24:30.086Z,72.17
2019-03-16T10:26:59.638Z,70.87
2019-03-16T10:29:28.217Z,73.30
2019-03-16T10:31:56.790Z,69.03
2019-03-16T10:34:25.439Z,68.62
2019-03-16T10:36:54.103Z,64.42
2019-03-16T10:39:22.751Z,64.47
2019-03-16T10:41:51.446Z,70.52
2019-03-16T10:44:20.107Z,65.47
2019-03-16T10:46:48.758Z,71.67
2019-03-16T10:49:17.425Z,65.83
2019-03-16T10:51:46.870Z,60.23
2019-03-16T10:54:15.561Z,70.03
2019-03-16T10:56:44.217Z,67.97
2019-03-16T10:59:12.726Z,69.72
2019-03-16T11:01:41.412Z,64.72
2019-03-16T11:04:10.083Z,73.75
2019-03-16T11:06:38.771Z,73.78
2019-03-16T11:09:07.404Z,70.00
2019-03-16T11:11:36.054Z,70.15
2019-03-16T11:14:04.952Z,74.17
2019-03-16T11:16:33.606Z,67.10
2019-03-16T11:19:02.308Z,73.30
2019-03-16T11:21:30.942Z,66.35
2019-03-16T11:23:59.518Z,69.92
2019-03-16T11:26:28.125Z,67.60
2019-03-16T11:29:04.536Z,65.03
2019-03-16T11:31:27.092Z,73.35
2019-03-16T11:33:55.742Z,79.97
2019-03-16T11:36:24.349Z,77.97
2019-03-16T11:38:52.931Z,71.82
2019-03-16T11:41:21.570Z,67.55
2019-03-16T11:43:50.178Z,75.45
2019-03-16T11:46:18.827Z,74.45
2019-03-16T11:48:47.517Z,78.80
2019-03-16T11:51:16.084Z,75.30
2019-03-16T11:53:44.750Z,78.83
2019-03-16T11:56:18.331Z,73.35
2019-03-16T11:58:43.663Z,69.47
2019-03-16T12:01:12.363Z,79.90
2019-03-16T12:03:40.934Z,77.08
2019-03-16T12:06:09.598Z,73.15
2019-03-16T12:08:39.716Z,76.28
2019-03-16T12:11:08.556Z,74.92
2019-03-16T12:13:37.266Z,70.80
2019-03-16T12:16:05.906Z,68.20
2019-03-16T12:18:41.771Z,80.70
2019-03-16T12:21:10.445Z,77.90
2019-03-16T12:23:39.021Z,72.72
2019-03-16T12:26:10.605Z,80.00
2019-03-16T12:28:39.169Z,73.95
2019-03-16T12:31:07.764Z,77.58
2019-03-16T12:33:36.452Z,75.25
2019-03-16T12:36:05.017Z,73.85
2019-03-16T12:38:34.018Z,69.15
2019-03-16T12:41:02.579Z,74.45
2019-03-16T12:43:31.225Z,72.55
2019-03-16T12:45:59.930Z,76.07
2019-03-16T12:48:28.547Z,79.75
2019-03-16T12:50:57.100Z,76.35
2019-03-16T12:53:25.746Z,79.30
2019-03-16T12:55:54.400Z,78.25
2019-03-16T12:58:23.078Z,74.80
2019-03-16T13:00:51.653Z,79.67
2019-03-16T13:03:20.347Z,76.12
2019-03-16T13:05:48.991Z,78.17
2019-03-16T13:08:17.573Z,75.67
2019-03-16T13:10:46.387Z,75.15
2019-03-16T13:13:15.029Z,75.25
2019-03-16T13:15:43.675Z,77.62
2019-03-16T13:18:12.313Z,77.30
2019-03-16T13:20:40.906Z,81.50
2019-03-16T13:23:09.626Z,78.95
2019-03-16T13:25:38.269Z,80.38
2019-03-16T13:28:06.970Z,79.50
2019-03-16T13:30:35.787Z,79.12
2019-03-16T13:33:04.350Z,72.22
2019-03-16T13:35:32.936Z,79.15
2019-03-16T13:38:01.518Z,74.53
2019-03-16T13:40:30.212Z,80.62
2019-03-16T13:42:58.859Z,75.62
2019-03-16T13:45:27.505Z,71.40
2019-03-16T13:47:56.195Z,67.72
2019-03-16T13:50:24.847Z,69.03
2019-03-16T13:52:53.856Z,69.55
2019-03-16T13:55:22.417Z,70.90
2019-03-16T13:57:51.056Z,74.97
2019-03-16T14:00:23.084Z,73.25
2019-03-16T14:02:51.740Z,69.47
2019-03-16T14:05:20.309Z,68.52
2019-03-16T14:07:48.914Z,64.40
2019-03-16T14:10:29.326Z,65.72
2019-03-16T14:12:57.988Z,72.37
2019-03-16T14:15:26.569Z,67.58
2019-03-16T14:17:57.874Z,65.75
2019-03-16T14:20:25.491Z,62.55
2019-03-16T14:22:54.574Z,60.28
2019-03-16T14:25:23.231Z,69.87
2019-03-16T14:27:51.878Z,64.03
2019-03-16T14:30:39.379Z,60.17
2019-03-16T14:32:51.491Z,58.65
2019-03-16T14:35:20.131Z,61.70
2019-03-16T14:37:48.794Z,60.48
2019-03-16T14:40:17.465Z,59.48
2019-03-16T14:42:46.150Z,60.20
2019-03-16T14:45:16.099Z,60.03
2019-03-16T14:47:44.754Z,61.00
2019-03-16T14:50:19.348Z,63.42
2019-03-16T14:52:48.009Z,58.05
2019-03-16T14:55:16.698Z,60.58
2019-03-16T14:57:45.344Z,58.20
2019-03-16T15:00:15.848Z,62.90
2019-03-16T15:02:46.290Z,60.17
2019-03-16T15:05:14.743Z,60.30
2019-03-16T15:07:43.388Z,63.73
2019-03-16T15:10:15.890Z,59.77
2019-03-16T15:12:44.537Z,62.78
2019-03-16T15:15:23.503Z,59.03
2019-03-16T15:17:52.087Z,55.75
2019-03-16T15:20:20.692Z,57.78
2019-03-16T15:22:49.344Z,61.75
2019-03-16T15:25:17.976Z,60.55
2019-03-16T15:27:46.658Z,58.63
2019-03-16T15:30:19.413Z,56.13
2019-03-16T15:32:48.419Z,60.78
2019-03-16T15:35:17.052Z,59.42
2019-03-16T15:37:45.659Z,54.33
2019-03-16T15:40:15.523Z,61.83
2019-03-16T15:42:44.175Z,56.40
2019-03-16T15:45:18.712Z,63.55
2019-03-16T15:47:47.361Z,60.48
2019-03-16T15:50:16.006Z,60.23
2019-03-16T15:52:44.684Z,59.25
2019-03-16T15:55:13.326Z,57.53
2019-03-16T15:57:42.811Z,63.70
2019-03-16T16:00:17.029Z,64.22
2019-03-16T16:02:45.732Z,55.88
2019-03-16T16:05:14.359Z,64.65
2019-03-16T16:07:43.012Z,59.83
2019-03-16T16:10:17.454Z,55.03
2019-03-16T16:12:46.087Z,56.20
2019-03-16T16:15:14.786Z,55.03
2019-03-16T16:17:43.370Z,58.90
2019-03-16T16:20:17.157Z,59.10
2019-03-16T16:22:45.778Z,62.75
2019-03-16T16:25:14.812Z,63.92
2019-03-16T16:27:43.504Z,65.22
2019-03-16T16:30:16.827Z,64.10
2019-03-16T16:32:45.451Z,62.17
2019-03-16T16:35:15.144Z,58.42
2019-03-16T16:37:43.789Z,64.95
2019-03-16T16:40:16.789Z,68.80
2019-03-16T16:42:45.445Z,69.22
2019-03-16T16:45:15.393Z,60.75
2019-03-16T16:47:44.056Z,58.83
2019-03-16T16:50:22.851Z,64.07
2019-03-16T16:52:51.553Z,63.28
2019-03-16T16:55:20.194Z,60.05
2019-03-16T16:57:48.833Z,64.92
2019-03-16T17:00:21.631Z,62.13
2019-03-16T17:02:50.256Z,60.33
2019-03-16T17:05:18.963Z,66.30
2019-03-16T17:07:47.611Z,58.80
2019-03-16T17:10:16.968Z,65.90
2019-03-16T17:12:45.646Z,66.70
2019-03-16T17:15:17.059Z,62.03
2019-03-16T17:17:45.542Z,61.23
2019-03-16T17:20:15.375Z,64.77
2019-03-16T17:22:44.039Z,64.17
2019-03-16T17:25:13.726Z,69.20
2019-03-16T17:27:42.369Z,70.67
2019-03-16T17:30:14.840Z,78.35
2019-03-16T17:32:43.487Z,73.17
2019-03-16T17:35:12.171Z,74.90
2019-03-16T17:37:40.816Z,77.62
2019-03-16T17:40:14.381Z,89.90
2019-03-16T17:42:43.074Z,89.40
2019-03-16T17:45:12.995Z,86.20
2019-03-16T17:47:41.717Z,86.82
2019-03-16T17:50:11.872Z,76.82
2019-03-16T17:52:40.507Z,78.07
2019-03-16T17:55:16.367Z,68.37
2019-03-16T17:57:45.652Z,68.92
2019-03-16T18:00:16.181Z,66.62
2019-03-16T18:02:51.720Z,70.42
2019-03-16T18:05:16.052Z,73.23
2019-03-16T18:07:44.667Z,77.78
2019-03-16T18:10:14.310Z,75.87
2019-03-16T18:12:43.013Z,74.35
2019-03-16T18:15:13.823Z,62.45
2019-03-16T18:17:42.464Z,67.10
2019-03-16T18:20:17.964Z,75.03
2019-03-16T18:22:47.849Z,70.57
2019-03-16T18:25:16.736Z,68.47
2019-03-16T18:27:45.386Z,67.53
2019-03-16T18:30:24.668Z,63.68
2019-03-16T18:32:53.306Z,65.67
2019-03-16T18:35:21.977Z,72.42
2019-03-16T18:37:50.627Z,70.25
2019-03-16T18:40:19.191Z,67.80
2019-03-16T18:42:47.828Z,72.27
2019-03-16T18:45:18.620Z,70.40
2019-03-16T18:47:47.338Z,74.40
2019-03-16T18:50:15.975Z,72.08
2019-03-16T18:52:44.633Z,70.35
2019-03-16T18:55:13.703Z,75.75
2019-03-16T18:57:42.357Z,73.55
2019-03-16T19:00:13.907Z,72.55
2019-03-16T19:02:42.566Z,78.07
2019-03-16T19:05:11.249Z,75.42
2019-03-16T19:07:39.906Z,75.05
2019-03-16T19:10:14.610Z,76.35
2019-03-16T19:12:43.681Z,78.45
2019-03-16T19:15:13.826Z,75.57
2019-03-16T19:17:42.506Z,74.82
2019-03-16T19:20:15.283Z,85.00
2019-03-16T19:22:43.934Z,78.10
2019-03-16T19:25:14.791Z,81.25
2019-03-16T19:27:43.438Z,79.27
2019-03-16T19:30:16.532Z,81.60
2019-03-16T19:32:45.174Z,75.08
2019-03-16T19:35:13.848Z,84.32
2019-03-16T19:37:42.574Z,81.53
2019-03-16T19:40:21.653Z,82.55
2019-03-16T19:42:50.266Z,83.50
2019-03-16T19:45:18.988Z,85.50
2019-03-16T19:47:47.609Z,87.97
2019-03-16T19:50:16.878Z,77.15
2019-03-16T19:52:45.524Z,90.35
2019-03-16T19:55:15.062Z,87.60
2019-03-16T19:57:43.776Z,100.05
2019-03-16T20:00:14.292Z,87.55
2019-03-16T20:02:50.186Z,77.15
2019-03-16T20:05:13.675Z,74.75
2019-03-16T20:07:42.318Z,78.87
2019-03-16T20:10:19.120Z,85.12
2019-03-16T20:12:47.799Z,75.25
2019-03-16T20:15:16.700Z,77.72
2019-03-16T20:17:45.334Z,75.78
2019-03-16T20:20:17.577Z,79.22
2019-03-16T20:25:13.997Z,69.77
2019-03-16T20:27:42.665Z,80.42
2019-03-16T20:30:15.229Z,73.35
2019-03-16T20:32:43.914Z,79.22
2019-03-16T20:35:12.478Z,76.22
2019-03-16T20:37:41.027Z,72.15
2019-03-16T20:40:17.377Z,75.97
2019-03-16T20:42:46.105Z,80.42
2019-03-16T20:45:14.876Z,77.87
2019-03-16T20:47:43.796Z,71.33
2019-03-16T20:50:14.676Z,75.03
2019-03-16T20:52:43.252Z,71.60
2019-03-16T20:55:11.947Z,81.65
2019-03-16T20:57:40.585Z,74.97
2019-03-16T21:00:14.328Z,75.30
2019-03-16T21:02:43.172Z,77.42
2019-03-16T21:05:11.953Z,81.15
2019-03-16T21:07:40.574Z,70.15
2019-03-16T21:10:10.822Z,76.62
2019-03-16T21:12:39.469Z,73.83
2019-03-16T21:15:13.474Z,74.77
2019-03-16T21:17:42.111Z,75.83
2019-03-16T21:20:14.826Z,73.37
2019-03-16T21:22:43.484Z,75.62
2019-03-16T21:25:13.715Z,77.08
2019-03-16T21:27:42.394Z,77.20
2019-03-16T21:30:19.416Z,73.65
2019-03-16T21:32:47.989Z,73.33
2019-03-16T21:35:16.643Z,72.67
2019-03-16T21:37:45.309Z,84.20
2019-03-16T21:40:15.043Z,73.42
2019-03-16T21:42:43.741Z,76.77
2019-03-16T21:45:13.497Z,76.70
2019-03-16T21:47:42.145Z,81.08
2019-03-16T21:50:12.235Z,77.20
2019-03-16T21:52:44.036Z,82.40
2019-03-16T21:55:12.414Z,76.75
2019-03-16T21:57:40.985Z,84.85
2019-03-16T22:00:13.753Z,77.95
2019-03-16T22:02:42.449Z,85.85
2019-03-16T22:05:11.013Z,78.45
2019-03-16T22:07:39.583Z,77.50
2019-03-16T22:10:15.855Z,78.28
2019-03-16T22:12:44.553Z,85.62
2019-03-16T22:15:14.504Z,77.40
2019-03-16T22:17:43.141Z,79.35
2019-03-16T22:20:18.901Z,77.58
2019-03-16T22:22:47.521Z,78.95
2019-03-16T22:25:16.233Z,81.32
2019-03-16T22:27:44.816Z,75.30
2019-03-16T22:30:15.771Z,75.78
2019-03-16T22:32:44.480Z,77.72
2019-03-16T22:35:13.131Z,78.28
2019-03-16T22:37:41.836Z,79.58
2019-03-16T22:40:14.195Z,81.02
2019-03-16T22:42:42.855Z,82.08
2019-03-16T22:45:15.004Z,84.25
2019-03-16T22:50:14.264Z,90.50
2019-03-16T22:52:42.895Z,91.67
2019-03-16T22:55:11.474Z,92.08
2019-03-16T22:57:43.203Z,88.42
2019-03-16T23:00:19.054Z,85.85
2019-03-16T23:02:47.673Z,89.45
2019-03-16T23:05:16.240Z,93.62
2019-03-16T23:07:44.876Z,97.20
2019-03-16T23:10:13.543Z,84.50
2019-03-16T23:12:42.180Z,93.40
2019-03-16T23:15:12.423Z,88.15
2019-03-16T23:17:41.093Z,89.80
2019-03-16T23:20:10.337Z,92.40
2019-03-16T23:22:39.006Z,93.87
2019-03-16T23:25:08.963Z,91.28
2019-03-16T23:27:37.677Z,88.72
2019-03-16T23:30:10.005Z,94.62
2019-03-16T23:32:38.664Z,91.47
2019-03-16T23:35:08.649Z,93.58
2019-03-16T23:37:37.303Z,89.28
2019-03-16T23:40:13.620Z,93.40
2019-03-16T23:42:42.266Z,90.35
2019-03-16T23:45:12.605Z,90.60
2019-03-16T23:47:41.244Z,89.50
2019-03-16T23:50:10.884Z,92.53
2019-03-16T23:52:39.492Z,88.65
2019-03-16T23:55:09.429Z,93.30
2019-03-16T23:57:38.139Z,88.47
